createdAt,value
2019-02-06T00:02:17.059Z,101546.43
2019-02-06T00:05:20.651Z,101545.55
2019-02-06T00:08:24.276Z,101545.55
2019-02-06T00:11:27.874Z,101549.91
2019-02-06T00:14:31.579Z,101549.05
2019-02-06T00:17:35.700Z,101550.40
2019-02-06T00:20:39.418Z,101544.69
2019-02-06T00:23:42.972Z,101541.20
2019-02-06T00:26:46.990Z,101545.55
2019-02-06T00:29:50.613Z,101550.86
2019-02-06T00:32:55.222Z,101542.10
2019-02-06T00:36:00.154Z,101549.14
2019-02-06T00:39:06.067Z,101542.10
2019-02-06T00:42:11.690Z,101540.39
2019-02-06T00:45:15.507Z,101540.39
2019-02-06T00:48:19.102Z,101546.15
2019-02-06T00:51:22.798Z,101546.63
2019-02-06T00:54:26.485Z,101550.12
2019-02-06T00:57:30.191Z,101550.61
2019-02-06T01:00:33.900Z,101542.66
2019-02-06T01:03:37.706Z,101542.28
2019-02-06T01:06:41.374Z,101545.31
2019-02-06T01:09:45.017Z,101548.48
2019-02-06T01:12:50.119Z,101543.19
2019-02-06T01:15:53.858Z,101543.59
2019-02-06T01:18:57.682Z,101545.37
2019-02-06T01:22:01.670Z,101544.05
2019-02-06T01:25:06.591Z,101543.67
2019-02-06T01:28:13.168Z,101546.70
2019-02-06T01:31:23.401Z,101539.70
2019-02-06T01:34:27.997Z,101544.99
2019-02-06T01:37:32.697Z,101544.12
2019-02-06T01:40:37.435Z,101549.42
2019-02-06T01:43:41.066Z,101551.13
2019-02-06T01:46:44.646Z,101543.67
2019-02-06T01:49:48.236Z,101548.48
2019-02-06T01:52:52.864Z,101550.75
2019-02-06T01:55:56.473Z,101546.77
2019-02-06T01:59:00.088Z,101537.50
2019-02-06T02:02:03.711Z,101535.72
2019-02-06T02:05:07.279Z,101534.85
2019-02-06T02:08:11.184Z,101537.95
2019-02-06T02:11:14.795Z,101529.63
2019-02-06T02:14:18.400Z,101520.34
2019-02-06T02:17:22.338Z,101520.34
2019-02-06T02:20:26.032Z,101517.70
2019-02-06T02:23:29.730Z,101518.64
2019-02-06T02:26:33.643Z,101524.78
2019-02-06T02:29:37.249Z,101514.67
2019-02-06T02:32:41.866Z,101524.78
2019-02-06T02:35:45.816Z,101515.13
2019-02-06T02:38:49.477Z,101513.80
2019-02-06T02:41:53.088Z,101505.47
2019-02-06T02:44:56.912Z,101509.83
2019-02-06T02:48:00.591Z,101500.17
2019-02-06T02:51:04.212Z,101505.47
2019-02-06T02:54:08.312Z,101508.11
2019-02-06T02:57:12.932Z,101498.42
2019-02-06T03:00:22.199Z,101494.45
2019-02-06T03:03:45.258Z,101496.65
2019-02-06T03:06:48.858Z,101498.84
2019-02-06T03:09:54.605Z,101498.84
2019-02-06T03:12:58.205Z,101493.06
2019-02-06T03:16:01.926Z,101491.28
2019-02-06T03:19:05.455Z,101484.27
2019-02-06T03:22:09.017Z,101484.27
2019-02-06T03:25:13.542Z,101489.58
2019-02-06T03:28:17.272Z,101486.05
2019-02-06T03:31:20.959Z,101480.75
2019-02-06T03:34:24.842Z,101482.95
2019-02-06T03:37:28.360Z,101485.98
2019-02-06T03:40:31.961Z,101484.80
2019-02-06T03:43:35.956Z,101489.16
2019-02-06T03:46:39.682Z,101484.27
2019-02-06T03:49:43.371Z,101481.63
2019-02-06T03:52:47.183Z,101480.30
2019-02-06T03:55:50.804Z,101477.66
2019-02-06T03:58:54.484Z,101482.53
2019-02-06T04:01:58.742Z,101478.56
2019-02-06T04:05:02.323Z,101482.53
2019-02-06T04:08:05.929Z,101479.50
2019-02-06T04:11:09.516Z,101480.83
2019-02-06T04:14:13.143Z,101480.83
2019-02-06T04:17:16.715Z,101484.41
2019-02-06T04:20:20.425Z,101488.32
2019-02-06T04:23:24.023Z,101485.73
2019-02-06T04:26:27.659Z,101483.47
2019-02-06T04:29:31.354Z,101484.80
2019-02-06T04:32:34.963Z,101489.71
2019-02-06T04:35:39.576Z,101484.03
2019-02-06T04:38:44.301Z,101485.36
2019-02-06T04:41:47.911Z,101484.41
2019-02-06T04:44:51.549Z,101479.12
2019-02-06T04:47:55.113Z,101487.06
2019-02-06T04:50:59.760Z,101480.52
2019-02-06T04:54:03.356Z,101479.57
2019-02-06T04:57:09.414Z,101477.34
2019-02-06T05:00:18.100Z,101472.11
2019-02-06T05:03:21.761Z,101476.47
2019-02-06T05:06:25.866Z,101470.38
2019-02-06T05:09:29.544Z,101466.81
2019-02-06T05:12:33.173Z,101468.14
2019-02-06T05:15:38.207Z,101467.72
2019-02-06T05:18:41.748Z,101470.78
2019-02-06T05:21:45.435Z,101465.08
2019-02-06T05:24:50.323Z,101468.59
2019-02-06T05:27:53.941Z,101474.69
2019-02-06T05:30:57.509Z,101469.47
2019-02-06T05:34:01.238Z,101475.67
2019-02-06T05:37:04.886Z,101480.58
2019-02-06T05:40:08.602Z,101478.39
2019-02-06T05:43:13.216Z,101484.94
2019-02-06T05:46:16.896Z,101480.58
2019-02-06T05:49:20.613Z,101484.94
2019-02-06T05:52:24.341Z,101487.66
2019-02-06T05:55:27.883Z,101480.58
2019-02-06T05:58:31.510Z,101487.20
2019-02-06T06:01:35.108Z,101484.17
2019-02-06T06:04:38.684Z,101486.33
2019-02-06T06:07:45.355Z,101486.27
2019-02-06T06:10:48.783Z,101484.55
2019-02-06T06:13:52.341Z,101487.20
2019-02-06T06:16:55.990Z,101486.82
2019-02-06T06:19:59.520Z,101484.17
2019-02-06T06:23:03.182Z,101486.27
2019-02-06T06:26:06.846Z,101476.99
2019-02-06T06:29:10.395Z,101483.23
2019-02-06T06:32:14.175Z,101489.85
2019-02-06T06:35:18.219Z,101484.55
2019-02-06T06:38:21.811Z,101491.17
2019-02-06T06:41:27.493Z,101496.86
2019-02-06T06:44:32.424Z,101491.17
2019-02-06T06:47:36.027Z,101489.85
2019-02-06T06:50:39.595Z,101488.14
2019-02-06T06:53:43.435Z,101495.15
2019-02-06T06:56:47.000Z,101496.86
2019-02-06T06:59:51.673Z,101500.90
2019-02-06T07:02:55.676Z,101499.64
2019-02-06T07:05:59.260Z,101505.74
2019-02-06T07:09:03.854Z,101498.67
2019-02-06T07:12:07.706Z,101499.51
2019-02-06T07:15:16.710Z,101503.09
2019-02-06T07:18:21.357Z,101507.87
2019-02-06T07:21:25.078Z,101507.06
2019-02-06T07:24:28.685Z,101506.12
2019-02-06T07:27:32.269Z,101497.87
2019-02-06T07:30:36.355Z,101498.73
2019-02-06T07:33:40.115Z,101503.61
2019-02-06T07:36:43.802Z,101504.03
2019-02-06T07:39:47.411Z,101507.06
2019-02-06T07:42:51.038Z,101507.45
2019-02-06T07:45:54.603Z,101507.45
2019-02-06T07:48:58.420Z,101507.06
2019-02-06T07:52:02.119Z,101505.74
2019-02-06T07:55:05.941Z,101508.39
2019-02-06T07:58:09.955Z,101512.89
2019-02-06T08:01:13.513Z,101509.72
2019-02-06T08:04:18.184Z,101511.42
2019-02-06T08:07:22.097Z,101505.29
2019-02-06T08:10:28.038Z,101494.45
2019-02-06T08:13:32.816Z,101490.83
2019-02-06T08:16:37.695Z,101484.20
2019-02-06T08:19:41.395Z,101491.14
2019-02-06T08:22:45.122Z,101481.17
2019-02-06T08:25:50.076Z,101476.18
2019-02-06T08:28:53.675Z,101474.02
2019-02-06T08:31:58.224Z,101479.23
2019-02-06T08:35:04.332Z,101482.20
2019-02-06T08:38:08.037Z,101477.63
2019-02-06T08:41:11.689Z,101478.70
2019-02-06T08:44:15.277Z,101474.20
2019-02-06T08:47:18.860Z,101467.95
2019-02-06T08:50:22.587Z,101463.53
2019-02-06T08:53:26.165Z,101457.21
2019-02-06T08:56:29.787Z,101449.64
2019-02-06T08:59:36.142Z,101451.23
2019-02-06T09:02:38.816Z,101449.11
2019-02-06T09:05:42.435Z,101438.36
2019-02-06T09:08:46.039Z,101438.74
2019-02-06T09:11:49.865Z,101433.37
2019-02-06T09:14:53.448Z,101433.67
2019-02-06T09:18:02.887Z,101440.30
2019-02-06T09:21:06.427Z,101438.38
2019-02-06T09:24:10.058Z,101437.35
2019-02-06T09:27:13.819Z,101432.84
2019-02-06T09:30:25.170Z,101425.80
2019-02-06T09:33:29.825Z,101423.00
2019-02-06T09:36:33.422Z,101420.58
2019-02-06T09:39:37.001Z,101424.97
2019-02-06T09:42:40.720Z,101420.58
2019-02-06T09:45:44.411Z,101418.19
2019-02-06T09:48:47.956Z,101422.47
2019-02-06T09:51:51.520Z,101420.66
2019-02-06T09:54:55.155Z,101424.55
2019-02-06T09:57:58.926Z,101425.50
2019-02-06T10:01:02.559Z,101420.20
2019-02-06T10:04:06.271Z,101417.55
2019-02-06T10:07:09.975Z,101417.55
2019-02-06T10:10:18.761Z,101418.88
2019-02-06T10:13:22.370Z,101413.19
2019-02-06T10:16:25.939Z,101414.14
2019-02-06T10:19:29.604Z,101419.82
2019-02-06T10:22:33.160Z,101423.72
2019-02-06T10:25:36.726Z,101418.42
2019-02-06T10:28:40.405Z,101415.28
2019-02-06T10:31:43.944Z,101411.64
2019-02-06T10:34:47.488Z,101408.50
2019-02-06T10:37:51.624Z,101406.64
2019-02-06T10:40:55.584Z,101397.73
2019-02-06T10:44:00.423Z,101402.51
2019-02-06T10:47:03.962Z,101396.87
2019-02-06T10:50:08.270Z,101393.22
2019-02-06T10:53:11.957Z,101387.36
2019-02-06T10:56:15.614Z,101374.88
2019-02-06T10:59:19.173Z,101370.91
2019-02-06T11:02:22.998Z,101371.20
2019-02-06T11:05:30.105Z,101368.48
2019-02-06T11:08:33.677Z,101372.45
2019-02-06T11:11:37.428Z,101369.80
2019-02-06T11:14:41.117Z,101355.59
2019-02-06T11:17:45.858Z,101352.03
2019-02-06T11:20:49.879Z,101346.53
2019-02-06T11:23:53.530Z,101343.88
2019-02-06T11:26:57.150Z,101340.85
2019-02-06T11:30:02.197Z,101332.36
2019-02-06T11:33:05.995Z,101328.84
2019-02-06T11:36:09.773Z,101320.42
2019-02-06T11:39:19.208Z,101316.40
2019-02-06T11:42:24.904Z,101320.83
2019-02-06T11:45:30.685Z,101320.75
2019-02-06T11:48:34.392Z,101318.97
2019-02-06T11:51:38.071Z,101315.37
2019-02-06T11:54:41.797Z,101314.83
2019-02-06T11:57:45.533Z,101309.91
2019-02-06T12:00:58.401Z,101303.65
2019-02-06T12:04:02.103Z,101305.35
2019-02-06T12:07:05.871Z,101296.48
2019-02-06T12:10:14.939Z,101293.75
2019-02-06T12:13:18.527Z,101296.77
2019-02-06T12:16:22.366Z,101291.02
2019-02-06T12:19:26.372Z,101289.60
2019-02-06T12:22:30.078Z,101279.37
2019-02-06T12:25:34.578Z,101276.63
2019-02-06T12:28:38.513Z,101273.90
2019-02-06T12:31:42.205Z,101262.42
2019-02-06T12:34:45.954Z,101251.27
2019-02-06T12:37:50.669Z,101256.95
2019-02-06T12:40:54.450Z,101252.39
2019-02-06T12:43:59.409Z,101249.20
2019-02-06T12:47:04.017Z,101245.76
2019-02-06T12:50:08.200Z,101239.53
2019-02-06T12:53:12.856Z,101231.95
2019-02-06T12:56:16.575Z,101224.86
2019-02-06T12:59:20.266Z,101227.97
2019-02-06T13:02:25.005Z,101218.14
2019-02-06T13:05:30.357Z,101220.30
2019-02-06T13:08:34.052Z,101208.27
2019-02-06T13:11:37.744Z,101209.14
2019-02-06T13:14:41.541Z,101198.98
2019-02-06T13:17:46.304Z,101191.98
2019-02-06T13:20:51.411Z,101194.09
2019-02-06T13:23:55.137Z,101192.56
2019-02-06T13:26:58.740Z,101192.09
2019-02-06T13:30:02.440Z,101183.27
2019-02-06T13:33:06.989Z,101181.77
2019-02-06T13:36:11.013Z,101179.12
2019-02-06T13:39:14.578Z,101177.25
2019-02-06T13:42:18.294Z,101175.84
2019-02-06T13:45:24.211Z,101176.99
2019-02-06T13:48:29.810Z,101171.77
2019-02-06T13:51:33.501Z,101177.28
2019-02-06T13:54:37.221Z,101165.25
2019-02-06T13:57:40.924Z,101161.73
2019-02-06T14:00:44.702Z,101157.95
2019-02-06T14:03:48.335Z,101163.75
2019-02-06T14:06:57.974Z,101156.94
2019-02-06T14:10:02.695Z,101144.50
2019-02-06T14:13:08.265Z,101138.23
2019-02-06T14:16:11.964Z,101138.15
2019-02-06T14:19:16.699Z,101136.73
2019-02-06T14:22:20.410Z,101128.77
2019-02-06T14:25:45.211Z,101127.84
2019-02-06T14:29:37.116Z,101120.43
2019-02-06T14:33:31.230Z,101116.25
2019-02-06T14:37:18.136Z,101116.43
2019-02-06T14:40:40.088Z,101104.66
2019-02-06T14:44:01.968Z,101109.59
2019-02-06T14:47:40.015Z,101095.55
2019-02-06T14:51:25.286Z,101102.77
2019-02-06T14:54:44.102Z,101096.77
2019-02-06T14:58:18.167Z,101094.86
2019-02-06T15:01:53.166Z,101083.01
2019-02-06T15:05:32.939Z,101086.20
2019-02-06T15:08:57.896Z,101077.01
2019-02-06T15:12:42.396Z,101075.22
2019-02-06T15:16:13.265Z,101067.81
2019-02-06T15:19:45.355Z,101068.84
2019-02-06T15:23:32.837Z,101060.98
2019-02-06T15:27:20.373Z,101055.30
2019-02-06T15:31:19.753Z,101046.97
2019-02-06T15:34:50.612Z,101045.14
2019-02-06T15:38:05.524Z,101047.05
2019-02-06T15:41:38.987Z,101040.51
2019-02-06T15:44:58.816Z,101042.38
2019-02-06T15:48:31.761Z,101035.47
2019-02-06T15:51:58.673Z,101037.25
2019-02-06T15:55:24.488Z,101037.34
2019-02-06T15:58:50.098Z,101037.83
2019-02-06T16:02:35.407Z,101033.07
2019-02-06T16:06:23.544Z,101028.72
2019-02-06T16:09:44.813Z,101016.41
2019-02-06T16:13:29.561Z,101024.91
2019-02-06T16:17:09.148Z,101022.03
2019-02-06T16:20:52.944Z,101017.64
2019-02-06T16:24:36.901Z,101016.52
2019-02-06T16:28:25.319Z,101011.39
2019-02-06T16:32:13.076Z,101008.34
2019-02-06T16:35:50.941Z,101008.34
2019-02-06T16:39:10.064Z,101009.46
2019-02-06T16:43:04.603Z,101005.02
2019-02-06T16:47:04.909Z,101000.59
2019-02-06T16:50:24.211Z,101001.42
2019-02-06T16:53:48.888Z,100991.22
2019-02-06T16:57:21.186Z,100999.63
2019-02-06T17:01:05.244Z,100997.35
2019-02-06T17:04:47.279Z,101000.38
2019-02-06T17:08:33.019Z,100996.03
2019-02-06T17:12:33.292Z,100994.70
2019-02-06T17:16:36.737Z,100989.23
2019-02-06T17:19:50.384Z,100986.02
2019-02-06T17:23:25.883Z,100987.90
2019-02-06T17:26:53.196Z,100976.74
2019-02-06T17:30:13.643Z,100976.34
2019-02-06T17:33:58.079Z,100978.91
2019-02-06T17:37:29.924Z,100973.69
2019-02-06T17:40:43.783Z,100968.87
2019-02-06T17:43:58.942Z,100960.60
2019-02-06T17:47:39.303Z,100964.12
2019-02-06T17:51:19.308Z,100968.55
2019-02-06T17:54:44.297Z,100964.98
2019-02-06T17:57:49.021Z,100967.05
2019-02-06T18:01:12.101Z,100973.69
2019-02-06T18:04:18.633Z,100973.31
2019-02-06T18:07:22.250Z,100968.01
2019-02-06T18:10:25.783Z,100973.22
2019-02-06T18:13:29.379Z,100970.86
2019-02-06T18:16:32.984Z,100975.16
2019-02-06T18:19:38.394Z,100974.69
2019-02-06T18:22:42.012Z,100974.23
2019-02-06T18:25:45.545Z,100970.54
2019-02-06T18:28:49.112Z,100970.36
2019-02-06T18:31:52.654Z,100972.06
2019-02-06T18:34:56.228Z,100969.88
2019-02-06T18:37:59.839Z,100965.52
2019-02-06T18:41:03.874Z,100959.26
2019-02-06T18:44:07.437Z,100957.65
2019-02-06T18:47:13.478Z,100948.95
2019-02-06T18:50:19.678Z,100959.64
2019-02-06T18:53:23.266Z,100957.05
2019-02-06T18:56:26.853Z,100956.99
2019-02-06T18:59:30.605Z,100964.60
2019-02-06T19:02:34.189Z,100952.66
2019-02-06T19:05:38.285Z,100947.94
2019-02-06T19:08:42.923Z,100945.29
2019-02-06T19:11:46.640Z,100937.88
2019-02-06T19:14:50.181Z,100940.08
2019-02-06T19:17:53.827Z,100937.42
2019-02-06T19:20:57.563Z,100932.58
2019-02-06T19:24:01.164Z,100929.01
2019-02-06T19:27:04.707Z,100936.01
2019-02-06T19:30:16.830Z,100937.42
2019-02-06T19:33:20.572Z,100931.66
2019-02-06T19:36:24.177Z,100924.63
2019-02-06T19:39:27.765Z,100931.16
2019-02-06T19:42:31.294Z,100924.94
2019-02-06T19:45:34.864Z,100923.12
2019-02-06T19:48:38.465Z,100916.86
2019-02-06T19:51:42.196Z,100909.31
2019-02-06T19:54:46.263Z,100901.76
2019-02-06T19:57:50.222Z,100889.88
2019-02-06T20:00:53.779Z,100889.02
2019-02-06T20:03:58.332Z,100889.97
2019-02-06T20:07:01.886Z,100889.97
2019-02-06T20:10:08.856Z,100892.94
2019-02-06T20:13:14.536Z,100886.77
2019-02-06T20:16:17.756Z,100886.77
2019-02-06T20:19:21.506Z,100873.09
2019-02-06T20:22:25.072Z,100870.45
2019-02-06T20:25:29.719Z,100871.77
2019-02-06T20:28:33.301Z,100856.81
2019-02-06T20:31:36.890Z,100866.69
2019-02-06T20:34:40.607Z,100866.86
2019-02-06T20:37:44.317Z,100860.87
2019-02-06T20:40:48.325Z,100853.10
2019-02-06T20:43:52.954Z,100849.70
2019-02-06T20:46:56.558Z,100846.28
2019-02-06T20:50:00.324Z,100842.80
2019-02-06T20:53:03.974Z,100839.92
2019-02-06T20:56:07.591Z,100842.20
2019-02-06T20:59:11.288Z,100836.16
2019-02-06T21:02:14.881Z,100829.13
2019-02-06T21:05:18.491Z,100840.69
2019-02-06T21:08:22.085Z,100836.42
2019-02-06T21:11:25.697Z,100834.52
2019-02-06T21:14:29.308Z,100823.26
2019-02-06T21:17:32.831Z,100826.38
2019-02-06T21:20:36.396Z,100818.88
2019-02-06T21:23:41.139Z,100817.19
2019-02-06T21:26:46.011Z,100821.66
2019-02-06T21:29:49.686Z,100809.73
2019-02-06T21:32:53.263Z,100814.16
2019-02-06T21:35:56.871Z,100811.23
2019-02-06T21:39:00.471Z,100813.02
2019-02-06T21:42:04.178Z,100810.55
2019-02-06T21:45:08.479Z,100815.84
2019-02-06T21:48:12.194Z,100805.70
2019-02-06T21:51:16.041Z,100809.39
2019-02-06T21:54:19.633Z,100803.27
2019-02-06T21:57:23.216Z,100798.42
2019-02-06T22:00:32.249Z,100791.42
2019-02-06T22:03:37.907Z,100793.30
2019-02-06T22:06:41.488Z,100788.59
2019-02-06T22:09:46.227Z,100788.18
2019-02-06T22:12:49.834Z,100782.51
2019-02-06T22:15:53.539Z,100781.19
2019-02-06T22:19:06.255Z,100784.02
2019-02-06T22:22:16.126Z,100782.23
2019-02-06T22:25:19.816Z,100795.07
2019-02-06T22:28:23.416Z,100794.24
2019-02-06T22:31:27.042Z,100793.37
2019-02-06T22:34:30.627Z,100787.21
2019-02-06T22:37:34.233Z,100785.05
2019-02-06T22:40:39.162Z,100778.89
2019-02-06T22:43:42.728Z,100774.92
2019-02-06T22:46:46.415Z,100777.56
2019-02-06T22:49:49.992Z,100774.08
2019-02-06T22:52:53.608Z,100773.22
2019-02-06T22:55:57.193Z,100779.47
2019-02-06T22:59:00.779Z,100768.87
2019-02-06T23:02:04.492Z,100769.80
2019-02-06T23:05:08.086Z,100760.52
2019-02-06T23:08:13.761Z,100764.12
2019-02-06T23:11:17.357Z,100759.20
2019-02-06T23:14:20.948Z,100761.11
2019-02-06T23:17:24.672Z,100754.08
2019-02-06T23:20:28.271Z,100751.92
2019-02-06T23:23:31.872Z,100752.88
2019-02-06T23:26:35.459Z,100748.03
2019-02-06T23:29:39.008Z,100739.72
2019-02-06T23:32:42.578Z,100732.69
2019-02-06T23:35:46.183Z,100733.64
2019-02-06T23:38:49.807Z,100726.16
2019-02-06T23:41:53.486Z,100725.70
2019-02-06T23:44:57.109Z,100716.05
2019-02-06T23:48:00.715Z,100708.20
2019-02-06T23:51:04.294Z,100703.73
2019-02-06T23:54:07.937Z,100698.06
2019-02-06T23:57:11.520Z,100699.38
